map of ENOA home
ENOA - Heliport
Location
City:  Oseberg A, Norway
Name:Norsk Hydro oil platform
ICAO:ENOA

Details
Type:Heliport
Latitude:6029'29"N (60.491389)
Longitude:249'32"E (2.825556)
Elevation:518 ft (158 m)
Variation:0.17E (WMM2015v2 magnetic declination)
0.23 annual change

Time
Time Zone:UTC+1 (DST+2)
Local Time:

Weather
METAR:ENOA 041350Z 13016KT 9999 VCSH BKN010 05/03 Q1002 W///S4
TAF:ENOA 041100Z 0412/0512 16018KT 9999 FEW010 BKN015
TEMPO 0412/0424 4000 SHRA BKN012CB
BECMG 0413/0415 10018KT
BECMG 0419/0421 03015KT

Related Locations
Nearby:
Farthest:NZTB: 11341 mi / 18251 km
Terra Nova Bay [Mario Zucchelli Station], AQ

Find:

   beyond  
but within

Other Information
Maps:
NOTAMs:
Links:
Sources:

  
  • flag of Norway
  

Sectional Chart

Flight Planning
at skyvector.com

Satellite Image

Google Maps Satellite view

 

Copyright © 2004-2019 Karl L. Swartz. All rights reserved.
The Great Circle Mapper name and logo are trademarks of the Great Circle Mapper.
All other trademarks mentioned herein belong to their respective owners.
Please see credits for attibutions and further copyright information.

  Follow gcmap on Facebook Follow gcmap on Twitter GCmap on LinkedIn

hCard Microformat

Geo Microformat